Messwerte Naples

Temperatur

Temperatur
°C
1573617600 23.00 23.00 23
1573621200 0.00 0.00 23
1573624800 1.00 1.00 23
1573628400 2.00 2.00 23
1573632000 3.00 3.00 23
1573635600 4.00 4.00
1573639200 5.00 5.00 23
1573642800 6.00 6.00 22
1573646400 7.00 7.00
1573650000 8.00 8.00 18
1573653600 9.00 9.00 19
1573657200 10.00 10.00 20
1573660800 11.00 11.00 22
1573664400 12.00 12.00 23
1573668000 13.00 13.00 24
1573671600 14.00 14.00 26
1573675200 15.00 15.00 27
1573678800 16.00 16.00 26
1573682400 17.00 17.00 25
1573686000 18.00 18.00 24
1573689600 19.00 19.00 23
1573693200 20.00 20.00 23
1573696800 21.00 21.00 22
1573700400 22.00 22.00 21

Aktuellste Messwerte

Wettercharakter
Wetter: klar
Temperatur
21 °C
Feuchtigkeit
85 %
Wind
20 km/hWindrichtung: Nordost
Luftdruck
1017 hPa
Messzeit: 14. November 2019, 0.00Datenquelle: METAR

Weitere Messstationen in der Nähe

Messstation Temperatur Entfernung
Fort Myers 19 °C 42 km
Fort Myers 20 °C 50 km
Punta Gorda 18 °C 88 km
Miami 23 °C 99 km
Miami 24 °C 147 km
Miami 23 °C 152 km
Hollywood 23 °C 155 km

Wind

Windrichtung Böen Mittelwind
° km/h km/h
1573617600 23.00 22.00 - 23.00 0
1573621200 0.00 23.00 - 0.00 0
1573624800 1.00 0.00 - 1.00 0
1573628400 2.00 1.00 - 2.00 0
1573632000 3.00 2.00 - 3.00 330° 10
1573635600 4.00 3.00 - 4.00
1573639200 5.00 4.00 - 5.00 20° 15
1573642800 6.00 5.00 - 6.00 20° 15
1573646400 7.00 6.00 - 7.00
1573650000 8.00 7.00 - 8.00 30° 35 25
1573653600 9.00 8.00 - 9.00 40° 30 20
1573657200 10.00 9.00 - 10.00 60° 35 30
1573660800 11.00 10.00 - 11.00 40° 30 25
1573664400 12.00 11.00 - 12.00 50° 20
1573668000 13.00 12.00 - 13.00 50° 20
1573671600 14.00 13.00 - 14.00 50° 25
1573675200 15.00 14.00 - 15.00 60° 20
1573678800 16.00 15.00 - 16.00 50° 20
1573682400 17.00 16.00 - 17.00 50° 35 25
1573686000 18.00 17.00 - 18.00 50° 35 20
1573689600 19.00 18.00 - 19.00 50° 20
1573693200 20.00 19.00 - 20.00 40° 20
1573696800 21.00 20.00 - 21.00 60° 25
1573700400 22.00 21.00 - 22.00 50° 20

Ihre Wetterstation

Fehlt Ihre Wetterstation auf unserem Portal?

Schreiben Sie an network@meteonews.ch

Klima

Wann ist es am wärmsten? Wann regnet es am wenigsten? Unsere Klimadaten geben Auskunft.